Time;durP1;ratioP1;P1;durP2;ratioP2;P2;SDS_P1;SDS_P2;PMS_P1;PMS_P2;Temp;Humidity;BMP_temperature;BMP_pressure;BME280_temperature;BME280_humidity;BME280_pressure;Samples;Min_cycle;Max_cycle;Signal;HPM_P1;HPM_P2
2022/01/07 00:04:50;;;;;;;3.70;1.60;;;-0.20;92.40;;;-2.49;68.17;100664.91;10372969;28;97909;-77
2022/01/07 00:09:53;;;;;;;4.27;1.40;;;-0.30;92.70;;;-2.56;68.46;100671.31;10386409;28;96983;-77
2022/01/07 00:14:59;;;;;;;3.57;1.40;;;-0.30;92.50;;;-2.66;68.75;100670.91;10389947;28;97715;-77
2022/01/07 00:20:08;;;;;;;6.53;1.60;;;-0.40;92.60;;;-2.72;68.94;100686.81;10390396;28;96633;-77
2022/01/07 00:25:13;;;;;;;4.80;1.40;;;-0.50;92.70;;;-2.70;68.80;100693.63;10384309;28;97378;-77
2022/01/07 00:30:17;;;;;;;3.53;1.70;;;-0.50;92.80;;;-2.66;68.30;100707.31;10368394;28;96704;-77
2022/01/07 00:35:21;;;;;;;5.17;1.83;;;-0.50;92.70;;;-2.66;68.47;100727.31;10385743;28;99974;-77
2022/01/07 00:40:25;;;;;;;7.87;2.27;;;-0.50;92.70;;;-2.70;68.44;100724.00;10366793;28;96858;-77
2022/01/07 00:45:30;;;;;;;4.67;1.80;;;-0.50;92.80;;;-2.73;68.67;100724.16;10314081;28;97867;-77
2022/01/07 00:50:36;;;;;;;3.37;1.50;;;-0.50;93.10;;;-2.70;68.76;100737.00;10328836;28;96625;-77
2022/01/07 00:55:40;;;;;;;4.10;1.23;;;-0.50;93.10;;;-2.75;69.05;100736.38;10324006;28;98526;-77
2022/01/07 01:00:43;;;;;;;3.40;1.53;;;-0.50;93.30;;;-2.76;69.19;100722.53;10333205;28;96797;-77
2022/01/07 01:05:46;;;;;;;5.03;1.40;;;-0.60;93.70;;;-2.70;69.39;100734.41;10332980;28;97326;-77
2022/01/07 01:10:49;;;;;;;3.37;1.27;;;-0.50;94.10;;;-2.59;69.11;100719.13;10337592;28;96616;-77
2022/01/07 01:15:52;;;;;;;6.53;1.80;;;-0.50;94.10;;;-2.50;68.73;100710.91;10330447;28;98367;-77
2022/01/07 01:20:56;;;;;;;5.23;1.80;;;-0.40;94.00;;;-2.48;68.62;100714.28;10342213;28;96659;-77
2022/01/07 01:25:59;;;;;;;7.23;1.80;;;-0.40;93.90;;;-2.55;68.46;100714.66;10331883;28;98367;-77
2022/01/07 01:31:07;;;;;;;5.23;1.60;;;-0.40;93.80;;;-2.64;69.10;100704.66;10337057;28;98321;-77
2022/01/07 01:36:12;;;;;;;5.90;1.80;;;-0.50;94.20;;;-2.73;69.40;100711.97;10341027;28;98618;-77
2022/01/07 01:41:15;;;;;;;4.53;1.50;;;-0.50;94.10;;;-2.76;69.01;100716.47;10365824;28;98419;-77
2022/01/07 01:46:20;;;;;;;3.47;1.47;;;-0.60;94.20;;;-2.86;69.58;100721.25;10382866;28;99105;-77
2022/01/07 01:51:23;;;;;;;4.27;1.77;;;-0.60;94.40;;;-2.98;69.86;100717.47;10383888;28;96925;-77
2022/01/07 01:56:26;;;;;;;6.53;1.87;;;-0.70;94.80;;;-3.00;70.15;100706.28;10347709;28;97183;-77
2022/01/07 02:01:29;;;;;;;4.87;2.30;;;-0.70;94.80;;;-3.04;70.39;100720.34;10364882;27;96989;-77
2022/01/07 02:06:35;;;;;;;3.13;1.43;;;-0.80;94.80;;;-3.13;70.55;100712.09;10374998;27;96732;-77
2022/01/07 02:11:40;;;;;;;4.43;1.80;;;-0.80;95.10;;;-3.25;70.91;100719.50;10392802;27;97815;-77
2022/01/07 02:16:43;;;;;;;5.77;2.13;;;-0.90;95.60;;;-3.37;71.23;100717.47;10382316;28;98374;-77
2022/01/07 02:21:47;;;;;;;3.90;1.63;;;-1.00;95.30;;;-3.51;71.78;100719.81;10366878;28;97273;-77
2022/01/07 02:26:58;;;;;;;5.23;2.20;;;-1.10;95.40;;;-3.66;72.00;100729.09;10367052;28;97490;-77
2022/01/07 02:32:01;;;;;;;5.55;2.90;;;-1.30;96.00;;;-3.78;73.00;100727.00;10345972;28;98010;-77
2022/01/07 02:37:04;;;;;;;3.27;1.50;;;-1.40;97.00;;;-3.87;73.16;100736.03;10381101;27;97736;-77
2022/01/07 02:42:08;;;;;;;6.70;2.63;;;-1.50;96.50;;;-3.95;73.22;100729.50;10398478;27;97460;-77
2022/01/07 02:47:11;;;;;;;9.17;1.80;;;-1.50;96.70;;;-3.99;73.63;100727.91;10350979;27;97191;-77
2022/01/07 02:52:14;;;;;;;4.00;2.00;;;-1.60;98.10;;;-4.09;73.87;100732.63;10380930;28;96666;-77
2022/01/07 02:57:17;;;;;;;4.57;1.93;;;-1.70;98.00;;;-4.18;73.81;100740.78;10376254;28;96595;-76
2022/01/07 03:02:23;;;;;;;10.40;3.13;;;-1.70;97.90;;;-4.15;74.24;100741.50;10363215;28;98382;-76
2022/01/07 03:07:26;;;;;;;3.60;1.57;;;-1.80;98.20;;;-4.04;73.55;100741.06;10389244;27;97060;-76
2022/01/07 03:12:30;;;;;;;3.57;1.50;;;-1.80;97.80;;;-3.89;72.57;100745.66;10371780;27;98268;-76
2022/01/07 03:17:33;;;;;;;5.80;1.67;;;-1.60;97.40;;;-3.83;72.28;100760.13;10366757;27;96682;-76
2022/01/07 03:22:39;;;;;;;3.10;1.40;;;-1.60;97.70;;;-3.72;71.62;100764.88;10360891;27;96940;-76
2022/01/07 03:27:43;;;;;;;4.23;1.20;;;-1.50;96.90;;;-3.73;71.08;100770.97;10397091;27;96838;-76
2022/01/07 03:32:47;;;;;;;4.60;1.40;;;-1.50;97.00;;;-3.79;71.09;100761.69;10370417;27;98150;-76
2022/01/07 03:37:50;;;;;;;4.03;1.57;;;-1.50;96.70;;;-3.75;70.81;100771.03;10359592;28;98330;-76
2022/01/07 03:42:54;;;;;;;4.23;1.50;;;-1.50;96.10;;;-3.70;70.49;100773.47;10361005;27;99049;-76
2022/01/07 03:47:57;;;;;;;5.90;2.20;;;-1.50;95.50;;;-3.70;69.66;100776.91;10386717;27;97912;-74
2022/01/07 03:53:00;;;;;;;7.57;1.90;;;-1.40;95.30;;;-3.72;69.76;100776.09;10388105;27;97036;-76
2022/01/07 03:58:07;;;;;;;2.70;1.30;;;-1.50;95.20;;;-3.81;69.49;100781.69;10358905;27;98747;-76
2022/01/07 04:03:15;;;;;;;5.07;1.53;;;-1.40;95.00;;;-3.91;69.62;100798.53;10366796;27;96767;-76
2022/01/07 04:08:18;;;;;;;7.10;2.57;;;-1.50;95.00;;;-4.03;69.93;100798.13;10353032;28;99000;-76
2022/01/07 04:13:21;;;;;;;9.20;3.23;;;-1.60;95.10;;;-4.19;71.16;100799.66;10361120;28;98212;-76
2022/01/07 04:18:24;;;;;;;11.50;3.80;;;-1.80;96.50;;;-4.37;71.76;100800.34;10393369;28;98934;-76
2022/01/07 04:23:27;;;;;;;8.17;3.60;;;-1.90;96.00;;;-4.57;72.02;100804.50;10378152;28;96707;-76
2022/01/07 04:28:30;;;;;;;4.40;1.90;;;-2.00;96.70;;;-4.71;72.77;100796.41;10361594;27;98636;-76
2022/01/07 04:33:34;;;;;;;4.33;2.00;;;-2.20;96.90;;;-4.80;73.19;100794.16;10364262;28;97650;-76
2022/01/07 04:38:39;;;;;;;5.03;1.67;;;-2.20;97.10;;;-4.95;73.03;100805.09;10399427;27;96588;-76
2022/01/07 04:43:42;;;;;;;6.07;1.87;;;-2.40;97.10;;;-5.08;73.93;100798.66;10380843;27;98080;-76
2022/01/07 04:48:45;;;;;;;4.03;1.93;;;-2.50;97.20;;;-5.22;74.68;100807.75;10361812;28;98433;-75
2022/01/07 04:53:48;;;;;;;6.03;2.10;;;-2.60;97.70;;;-5.34;75.09;100808.16;10368807;27;96700;-76
2022/01/07 04:58:51;;;;;;;8.47;2.87;;;-2.80;97.90;;;-5.42;76.23;100812.75;10373668;28;99245;-76
2022/01/07 05:03:54;;;;;;;8.27;3.37;;;-2.90;99.90;;;-5.46;76.54;100818.94;10394951;27;97183;-76
2022/01/07 05:09:04;;;;;;;27.20;8.10;;;-2.90;99.90;;;-5.52;77.09;100819.97;10377338;27;98072;-75
2022/01/07 05:14:07;;;;;;;20.53;7.40;;;-3.00;99.90;;;-5.50;77.67;100817.34;10372061;28;98015;-76
2022/01/07 05:19:14;;;;;;;13.20;4.90;;;-3.00;99.90;;;-5.54;76.76;100805.41;10396974;27;96838;-76
2022/01/07 05:24:17;;;;;;;10.43;3.33;;;-3.10;99.90;;;-5.60;77.18;100810.78;10371472;27;98657;-76
2022/01/07 05:29:20;;;;;;;19.20;6.57;;;-3.10;99.90;;;-5.65;77.30;100814.34;10371512;27;97744;-76
2022/01/07 05:34:29;;;;;;;35.97;8.87;;;-3.20;99.90;;;-5.69;77.19;100833.50;10391570;28;98751;-76
2022/01/07 05:39:32;;;;;;;67.13;19.60;;;-3.20;99.90;;;-5.74;77.64;100822.44;10381681;28;96680;-76
2022/01/07 05:44:40;;;;;;;46.23;12.73;;;-3.30;99.90;;;-5.81;77.69;100838.22;10373863;28;96832;-76
2022/01/07 05:49:44;;;;;;;30.23;9.13;;;-3.40;99.90;;;-5.92;77.63;100833.41;10382551;28;96722;-76
2022/01/07 05:54:48;;;;;;;26.57;8.33;;;-3.40;99.90;;;-6.04;77.99;100841.56;10400379;28;97077;-77
2022/01/07 05:59:52;;;;;;;18.73;5.83;;;-3.50;99.90;;;-6.14;77.99;100845.31;10366215;28;98261;-76
2022/01/07 06:04:55;;;;;;;34.23;8.50;;;-3.60;99.90;;;-6.28;78.34;100853.50;10366883;28;99043;-76
2022/01/07 06:09:59;;;;;;;53.67;15.93;;;-3.70;99.90;;;-6.33;78.81;100840.69;10386227;27;96897;-76
2022/01/07 06:15:03;;;;;;;40.33;12.93;;;-3.80;99.90;;;-6.37;79.67;100838.22;10365471;27;97007;-76
2022/01/07 06:20:07;;;;;;;65.13;20.27;;;-3.80;99.90;;;-6.45;79.90;100855.72;10384274;28;98526;-76
2022/01/07 06:25:12;;;;;;;67.17;21.30;;;-3.90;99.90;;;-6.55;79.29;100870.63;10379376;27;97467;-76
2022/01/07 06:30:15;;;;;;;53.00;18.30;;;-4.00;99.90;;;-6.60;80.31;100872.50;10393824;27;98232;-76
2022/01/07 06:35:18;;;;;;;65.37;19.83;;;-4.00;99.90;;;-6.67;80.64;100869.25;10377483;27;96629;-76
2022/01/07 06:40:23;;;;;;;52.90;20.10;;;-4.10;99.90;;;-6.74;80.74;100871.16;10377839;27;97028;-76
2022/01/07 06:45:25;;;;;;;59.47;21.03;;;-4.10;99.90;;;-6.78;80.87;100882.50;10399352;27;97884;-76
2022/01/07 06:50:29;;;;;;;48.77;15.03;;;-4.20;99.90;;;-6.78;81.21;100886.78;10384393;27;96595;-75
2022/01/07 06:55:31;;;;;;;41.17;14.37;;;-4.20;99.90;;;-6.49;82.09;100885.97;10378887;27;98118;-75
2022/01/07 07:00:35;;;;;;;38.77;13.30;;;-4.20;99.90;;;-6.00;82.40;100884.53;10384299;27;96649;-75
2022/01/07 07:05:38;;;;;;;45.23;12.10;;;-4.00;99.90;;;-5.42;81.70;100898.22;10379331;28;96546;-76
2022/01/07 07:10:41;;;;;;;26.70;8.33;;;-3.80;99.90;;;-4.96;80.33;100901.91;10352167;27;97129;-76
2022/01/07 07:15:50;;;;;;;17.87;6.63;;;-3.50;99.90;;;-4.56;79.58;100898.75;10382551;28;98285;-75
2022/01/07 07:20:54;;;;;;;24.47;12.40;;;-3.20;99.90;;;-4.22;78.27;100900.97;10369804;28;96883;-75
2022/01/07 07:26:05;;;;;;;15.93;5.83;;;-2.90;99.90;;;-3.82;77.42;100889.06;10618717;27;96937;-76
2022/01/07 07:31:13;;;;;;;22.20;6.80;;;-2.50;99.90;;;-3.46;76.14;100888.53;10555000;27;98073;-76
2022/01/07 07:41:31;;;;;;;30.43;10.67;;;-1.90;99.90;;;-2.63;74.82;100904.94;10551424;27;98336;-76
2022/01/07 07:46:37;;;;;;;23.60;9.20;;;-1.60;99.90;;;-2.07;72.78;100885.09;10540806;27;97272;-76
2022/01/07 07:51:40;;;;;;;24.10;9.93;;;-1.20;99.90;;;-1.52;71.54;100885.09;10570559;27;97281;-76
2022/01/07 07:56:44;;;;;;;15.73;5.60;;;-0.80;99.90;;;-1.01;69.66;100892.13;10553783;27;96905;-77
2022/01/07 08:01:46;;;;;;;42.70;16.67;;;-0.30;99.90;;;-0.40;67.57;100890.72;10561751;27;97404;-76
2022/01/07 08:06:52;;;;;;;24.07;9.77;;;0.10;99.90;;;-0.02;64.88;100889.50;10562460;27;96561;-77
2022/01/07 08:12:04;;;;;;;25.53;9.27;;;0.40;99.90;;;0.36;63.69;100890.91;10552904;27;96790;-77
2022/01/07 08:17:08;;;;;;;30.10;10.18;;;0.70;99.90;;;0.73;62.60;100889.69;10569559;27;97318;-77
2022/01/07 08:22:11;;;;;;;16.73;7.07;;;1.10;99.90;;;1.06;60.84;100889.50;10569963;27;98857;-77
2022/01/07 08:27:14;;;;;;;31.30;12.70;;;1.60;99.10;;;1.50;60.36;100904.31;10564993;27;97601;-77
2022/01/07 08:37:57;;;;;;;27.93;13.20;;;2.50;99.90;;;2.39;58.42;100895.25;10530247;27;98246;-75
2022/01/07 08:43:00;;;;;;;20.50;10.07;;;3.10;99.90;;;2.78;57.57;100887.53;10534110;27;97302;-77
2022/01/07 08:48:03;;;;;;;14.43;6.27;;;3.60;99.80;;;3.25;57.02;100888.75;10544802;27;98550;-78
2022/01/07 08:53:06;;;;;;;14.37;6.70;;;4.10;99.90;;;3.64;54.77;100893.88;10532305;27;97339;-77
2022/01/07 08:58:09;;;;;;;12.43;6.77;;;4.60;99.30;;;4.13;53.23;100884.34;10530502;27;97264;-78
2022/01/07 09:03:12;;;;;;;19.73;7.73;;;5.00;98.10;;;3.90;52.03;100888.59;10549815;27;98393;-78
2022/01/07 09:08:24;;;;;;;16.47;6.80;;;5.10;94.70;;;2.98;52.61;100896.69;10547344;27;98058;-78
2022/01/07 09:13:27;;;;;;;;;;;4.70;90.80;;;2.02;54.19;100885.41;10536981;27;98410;-76
2022/01/07 09:18:32;;;;;;;14.27;6.50;;;4.10;80.10;;;1.68;55.41;100878.78;10523222;27;98424;-78
2022/01/07 09:23:35;;;;;;;12.07;6.07;;;3.70;89.20;;;2.37;55.31;100876.16;10507940;27;98267;-77
2022/01/07 09:28:38;;;;;;;14.27;7.57;;;3.90;91.10;;;3.32;52.74;100861.97;10522340;27;98603;-76
2022/01/07 09:33:42;;;;;;;8.13;4.47;;;4.50;90.90;;;4.08;50.03;100847.00;10513487;27;98835;-75
2022/01/07 09:39:06;;;;;;;10.30;4.78;;;5.20;87.90;;;4.56;47.82;100843.44;10516919;27;99772;-76
2022/01/07 09:44:13;;;;;;;9.57;5.20;;;5.70;85.30;;;4.36;47.11;100841.41;10521729;27;98080;-78
2022/01/07 09:50:31;;;;;;;9.87;4.40;;;5.90;80.10;;;3.53;47.83;100845.66;10496939;27;98438;-78
2022/01/07 10:02:00;;;;;;;7.27;3.90;;;4.80;69.50;;;1.60;50.51;100837.34;10441371;27;97844;-87
2022/01/07 10:07:22;;;;;;;14.30;7.40;;;4.00;71.70;;;1.11;52.33;100835.09;10453318;27;98621;-86
2022/01/07 10:12:27;;;;;;;11.13;3.90;;;3.50;73.80;;;0.77;53.70;100831.84;10438100;27;96853;-87
2022/01/07 10:17:30;;;;;;;7.63;3.83;;;3.10;74.80;;;0.55;55.11;100825.38;10436517;27;97657;-88
2022/01/07 10:23:23;;;;;;;7.80;3.87;;;2.90;75.20;;;0.44;55.63;100823.38;10428704;27;97852;-87
2022/01/07 10:28:33;;;;;;;6.87;4.00;;;2.70;75.30;;;0.34;56.07;100806.50;10441686;27;97815;-86
2022/01/07 10:33:41;;;;;;;8.20;4.63;;;2.50;76.40;;;0.28;55.96;100799.03;10425238;27;96850;-85
2022/01/07 10:38:55;;;;;;;9.83;4.43;;;2.50;76.50;;;0.31;56.23;100786.63;10420856;27;96772;-86
2022/01/07 10:44:04;;;;;;;8.67;4.73;;;2.40;76.80;;;0.34;55.86;100785.59;10449042;27;97044;-86
2022/01/07 10:49:07;;;;;;;18.77;11.13;;;2.40;76.40;;;0.37;54.58;100769.75;10439754;27;98243;-85
2022/01/07 10:54:17;;;;;;;9.50;4.93;;;2.40;74.10;;;0.49;55.11;100767.25;10417049;27;97587;-85
2022/01/07 10:59:21;;;;;;;19.53;8.67;;;2.50;76.20;;;1.38;53.78;100751.44;10428881;27;98003;-86
2022/01/07 11:04:30;;;;;;;9.07;4.40;;;3.10;74.50;;;1.97;51.27;100746.75;10414639;27;98633;-86
2022/01/07 11:09:33;;;;;;;9.60;3.97;;;3.60;72.00;;;2.18;49.58;100734.06;10435137;27;96966;-86
2022/01/07 11:14:36;;;;;;;6.73;3.33;;;3.90;70.20;;;2.39;48.46;100732.59;10435331;27;97108;-86
2022/01/07 11:19:43;;;;;;;8.90;3.57;;;4.10;69.20;;;2.36;48.10;100722.34;10425110;27;97691;-86
2022/01/07 11:25:08;;;;;;;7.30;3.23;;;4.10;69.50;;;2.14;47.36;100724.69;10414071;27;97295;-86
2022/01/07 11:30:15;;;;;;;7.23;3.33;;;4.10;65.80;;;1.94;48.36;100712.06;10400989;27;97846;-85
2022/01/07 11:35:19;;;;;;;5.20;3.37;;;3.90;67.00;;;1.76;47.97;100707.06;10428466;27;97428;-85
2022/01/07 11:40:31;;;;;;;8.70;3.50;;;3.80;66.30;;;1.64;49.06;100705.25;10439593;27;97445;-85
2022/01/07 11:45:39;;;;;;;12.33;4.83;;;3.60;66.30;;;1.57;48.55;100699.56;10438293;27;98637;-85
2022/01/07 11:51:02;;;;;;;6.23;3.00;;;3.60;65.10;;;1.54;49.38;100701.53;10437158;27;97467;-85
2022/01/07 11:56:14;;;;;;;6.73;3.00;;;3.50;65.80;;;1.49;49.52;100695.72;10412101;27;97262;-85
2022/01/07 12:01:34;;;;;;;4.80;2.73;;;3.50;66.80;;;1.43;49.79;100685.66;10403854;27;98605;-85
2022/01/07 12:06:38;;;;;;;7.13;2.90;;;3.40;66.70;;;1.40;49.82;100684.06;10423538;27;97171;-85
2022/01/07 12:12:03;;;;;;;7.97;3.20;;;3.40;65.80;;;1.37;49.47;100678.19;10435375;27;97301;-85
2022/01/07 12:17:14;;;;;;;8.03;4.20;;;3.40;65.70;;;1.33;48.64;100672.31;10441129;27;97595;-85
2022/01/07 12:22:20;;;;;;;10.25;3.97;;;3.30;64.30;;;1.32;47.55;100676.72;10415299;27;99006;-85
2022/01/07 12:27:24;;;;;;;8.70;3.80;;;3.40;64.30;;;1.29;48.47;100665.59;10444832;27;98627;-86
2022/01/07 12:32:38;;;;;;;50.30;19.40;;;3.30;65.00;;;1.26;48.47;100664.00;10433610;27;98676;-87
2022/01/07 12:37:42;;;;;;;19.30;8.27;;;3.30;64.30;;;1.21;47.90;100652.16;10433221;27;96613;-87
2022/01/07 12:42:46;;;;;;;15.93;5.43;;;3.30;63.70;;;1.15;48.14;100650.75;10434061;27;98645;-86
2022/01/07 12:47:53;;;;;;;10.10;4.27;;;3.20;64.60;;;1.10;48.46;100638.91;10443483;27;96684;-87
2022/01/07 12:53:17;;;;;;;6.03;3.27;;;3.20;64.10;;;1.06;46.97;100635.63;10419683;27;99092;-86
2022/01/07 12:58:28;;;;;;;6.07;3.53;;;3.10;64.00;;;1.00;46.96;100630.75;10421071;27;97778;-87
2022/01/07 13:03:33;;;;;;;6.33;3.20;;;3.10;63.30;;;0.92;47.46;100626.03;10404079;27;98056;-86
2022/01/07 13:08:38;;;;;;;6.77;2.60;;;3.00;63.20;;;0.88;48.37;100618.44;10430104;27;96966;-86
2022/01/07 13:13:41;;;;;;;4.67;3.00;;;3.00;64.00;;;0.84;48.32;100616.94;10433027;27;96648;-86
2022/01/07 13:18:44;;;;;;;24.43;10.10;;;3.00;64.10;;;0.80;48.72;100611.94;10425837;27;96945;-86
2022/01/07 13:23:56;;;;;;;185.37;62.23;;;2.90;64.50;;;0.75;48.40;100613.97;10438492;27;96985;-86
2022/01/07 13:29:24;;;;;;;26.97;16.23;;;2.90;63.60;;;0.71;48.33;100615.09;10433063;27;98060;-86
2022/01/07 13:34:31;;;;;;;10.63;5.83;;;2.80;64.00;;;0.66;48.73;100603.22;10434463;27;98621;-86
2022/01/07 13:39:50;;;;;;;23.03;13.77;;;2.80;64.10;;;0.62;49.15;100615.69;10423691;27;99170;-86
2022/01/07 13:45:03;;;;;;;9.80;5.50;;;2.70;64.70;;;0.58;49.10;100611.56;10421287;27;98140;-87
2022/01/07 13:50:27;;;;;;;43.23;24.00;;;2.70;64.30;;;0.51;49.66;100610.25;10435570;27;98337;-86
2022/01/07 13:55:35;;;;;;;10.83;5.57;;;2.70;64.90;;;0.45;49.64;100593.16;10423428;27;98106;-86
2022/01/07 14:00:41;;;;;;;10.13;3.93;;;2.60;65.00;;;0.35;49.97;100589.44;10428216;27;96681;-85
2022/01/07 14:06:00;;;;;;;6.37;3.33;;;2.60;65.20;;;0.27;49.81;100589.06;10448450;27;96744;-85
2022/01/07 14:11:15;;;;;;;9.20;4.70;;;2.50;65.30;;;0.14;50.46;100591.56;10439811;27;98211;-86
2022/01/07 14:16:22;;;;;;;13.17;5.47;;;2.40;65.60;;;0.00;51.02;100588.97;10428960;27;97569;-86
2022/01/07 14:21:26;;;;;;;19.00;6.90;;;2.30;65.70;;;-0.15;51.37;100589.84;10414028;27;97897;-84
2022/01/07 14:26:31;;;;;;;19.83;8.17;;;2.20;65.80;;;-0.33;51.82;100587.38;10437148;27;98828;-84
2022/01/07 14:31:34;;;;;;;19.23;6.30;;;2.00;66.40;;;-0.55;52.85;100592.13;10436447;27;97840;-84
2022/01/07 14:36:37;;;;;;;31.87;11.37;;;1.80;67.30;;;-0.79;53.89;100580.47;10417479;27;96744;-84
2022/01/07 14:41:41;;;;;;;15.90;6.97;;;1.60;68.20;;;-1.06;55.05;100585.47;10443914;27;96763;-83
2022/01/07 14:46:44;;;;;;;33.37;14.17;;;1.40;69.00;;;-1.30;55.42;100585.03;10431766;27;96512;-84
2022/01/07 14:51:46;;;;;;;26.30;11.80;;;1.20;69.30;;;-1.52;55.84;100583.56;10444426;27;96571;-83
2022/01/07 14:56:54;;;;;;;15.73;8.13;;;1.00;69.70;;;-1.74;56.47;100581.28;10426752;27;97138;-84
2022/01/07 15:02:10;;;;;;;19.37;7.53;;;0.80;70.40;;;-1.96;57.13;100586.75;10374249;27;101411;-84
2022/01/07 15:07:13;;;;;;;24.53;9.20;;;0.60;70.80;;;-2.13;57.72;100598.94;10402316;27;97655;-84
2022/01/07 15:12:16;;;;;;;22.90;8.50;;;0.40;71.30;;;-2.32;58.21;100597.25;10419652;27;98349;-84
2022/01/07 15:17:19;;;;;;;126.27;39.83;;;0.20;71.90;;;-2.50;58.87;100599.00;10391965;28;98476;-84
2022/01/07 15:22:21;;;;;;;68.40;27.47;;;0.00;72.50;;;-2.66;59.62;100592.84;10410771;28;97126;-84
2022/01/07 15:27:24;;;;;;;32.10;12.77;;;-0.20;72.50;;;-2.79;60.21;100602.19;10405059;27;97563;-77
2022/01/07 15:32:29;;;;;;;35.83;13.33;;;-0.30;72.50;;;-2.93;60.73;100599.41;10398922;27;96928;-82
2022/01/07 15:37:32;;;;;;;13.77;5.33;;;-0.40;74.30;;;-3.03;61.68;100602.41;10411119;28;96905;-83
2022/01/07 15:42:38;;;;;;;35.13;12.73;;;-0.50;73.70;;;-3.13;61.82;100593.34;10395407;27;97056;-82
2022/01/07 15:47:41;;;;;;;17.93;8.40;;;-0.60;75.30;;;-3.25;62.38;100596.50;10393438;27;98928;-83
2022/01/07 15:52:44;;;;;;;33.93;9.93;;;-0.70;76.30;;;-3.36;63.38;100601.34;10417224;27;98243;-82
2022/01/07 15:57:48;;;;;;;139.80;43.13;;;-0.90;76.00;;;-3.41;63.53;100590.34;10415929;27;96784;-82
2022/01/07 16:02:51;;;;;;;38.93;15.40;;;-0.90;76.70;;;-3.50;63.55;100595.03;10435820;27;98414;-83
2022/01/07 16:07:57;;;;;;;71.23;26.20;;;-1.00;77.10;;;-3.57;63.83;100593.63;10435533;27;98402;-82
2022/01/07 16:13:01;;;;;;;36.57;15.13;;;-1.10;77.50;;;-3.64;65.14;100604.38;10432307;27;97134;-83
2022/01/07 16:18:04;;;;;;;29.83;13.03;;;-1.20;78.70;;;-3.75;65.14;100614.38;10418134;27;96782;-82
2022/01/07 16:23:09;;;;;;;36.13;14.77;;;-1.30;79.70;;;-3.89;65.71;100600.25;10424185;27;97409;-82
2022/01/07 16:28:12;;;;;;;37.93;14.17;;;-1.40;80.40;;;-4.00;66.54;100599.88;10419978;27;97032;-82
2022/01/07 16:33:18;;;;;;;44.40;17.07;;;-1.50;81.90;;;-4.13;66.97;100603.91;10417206;27;96988;-82
2022/01/07 16:38:21;;;;;;;72.27;25.53;;;-1.60;83.60;;;-4.24;67.61;100601.75;10419686;27;96778;-83
2022/01/07 16:43:24;;;;;;;56.23;21.13;;;-1.70;85.10;;;-4.34;67.92;100600.44;10442111;27;98230;-82
2022/01/07 16:48:27;;;;;;;50.50;19.40;;;-1.90;84.50;;;-4.44;68.49;100602.56;10439344;27;97326;-83
2022/01/07 16:53:30;;;;;;;43.90;18.70;;;-1.90;85.90;;;-4.52;68.40;100607.22;10415776;27;99006;-82
2022/01/07 16:58:36;;;;;;;56.00;23.70;;;-2.00;86.70;;;-4.63;69.18;100612.00;10435724;27;96734;-82
2022/01/07 17:03:41;;;;;;;38.93;15.30;;;-2.10;88.90;;;-4.72;69.35;100610.63;10430790;27;97470;-83
2022/01/07 17:08:44;;;;;;;42.70;14.53;;;-2.20;88.20;;;-4.77;69.76;100611.72;10417443;27;98230;-82
2022/01/07 17:13:47;;;;;;;114.00;35.13;;;-2.30;88.00;;;-4.79;69.90;100619.56;10416924;27;96960;-82
2022/01/07 17:18:50;;;;;;;56.73;20.40;;;-2.30;87.10;;;-4.86;69.67;100603.41;10429796;27;99628;-82
2022/01/07 17:23:53;;;;;;;122.00;30.27;;;-2.40;88.70;;;-4.93;70.44;100607.09;10416147;27;96630;-84
2022/01/07 17:28:56;;;;;;;70.40;18.63;;;-2.40;90.50;;;-5.00;70.86;100610.84;10436202;27;96823;-82
2022/01/07 17:34:00;;;;;;;35.33;11.93;;;-2.50;91.50;;;-5.06;71.16;100611.09;10435315;27;98451;-82
2022/01/07 17:39:04;;;;;;;23.93;9.47;;;-2.50;90.90;;;-5.14;71.31;100610.53;10452202;27;97766;-82
2022/01/07 17:44:08;;;;;;;22.57;8.73;;;-2.60;91.50;;;-5.23;71.85;100609.13;10438124;27;98629;-83
2022/01/07 17:49:15;;;;;;;21.90;8.83;;;-2.70;93.00;;;-5.29;72.55;100606.78;10429036;27;97865;-82
2022/01/07 17:54:18;;;;;;;19.80;7.53;;;-2.80;94.60;;;-5.36;72.73;100601.88;10423771;27;97396;-83
2022/01/07 17:59:22;;;;;;;17.37;7.47;;;-2.80;94.60;;;-5.42;73.29;100593.44;10423160;27;97415;-82
2022/01/07 18:04:25;;;;;;;15.70;7.37;;;-2.90;94.70;;;-5.49;73.75;100593.72;10403026;27;98717;-82
2022/01/07 18:09:28;;;;;;;15.23;6.63;;;-3.00;95.30;;;-5.58;73.71;100594.91;10404463;27;98934;-83
2022/01/07 18:14:31;;;;;;;19.63;7.33;;;-3.00;95.80;;;-5.65;74.52;100617.59;10441248;27;97037;-82
2022/01/07 18:19:34;;;;;;;26.77;10.03;;;-3.10;97.30;;;-5.66;75.61;100609.88;10452711;27;98934;-82
2022/01/07 18:24:37;;;;;;;23.23;10.20;;;-3.10;99.90;;;-5.63;75.43;100608.94;10428773;27;97873;-82
2022/01/07 18:29:40;;;;;;;23.07;9.53;;;-3.10;99.50;;;-5.69;75.42;100594.47;10428473;27;97997;-83
2022/01/07 18:34:44;;;;;;;26.37;10.27;;;-3.20;99.20;;;-5.73;75.72;100598.91;10426853;27;97653;-82
2022/01/07 18:39:49;;;;;;;22.07;9.03;;;-3.20;99.90;;;-5.80;75.74;100605.19;10424817;27;98852;-82
2022/01/07 18:44:52;;;;;;;20.30;8.57;;;-3.30;99.90;;;-5.85;75.96;100608.84;10435807;27;98650;-83
2022/01/07 18:49:57;;;;;;;21.37;9.60;;;-3.30;99.90;;;-5.93;76.67;100601.41;10422400;27;96590;-83
2022/01/07 18:55:02;;;;;;;17.30;7.60;;;-3.40;99.90;;;-6.00;76.82;100610.25;10410180;27;96770;-83
2022/01/07 19:00:10;;;;;;;19.70;7.93;;;-3.40;99.90;;;-6.11;76.56;100605.47;10419887;27;98262;-82
2022/01/07 19:05:13;;;;;;;15.17;7.03;;;-3.50;99.90;;;-6.16;77.13;100601.34;10438548;27;98184;-83
2022/01/07 19:10:17;;;;;;;19.23;8.10;;;-3.60;99.90;;;-6.21;77.63;100597.16;10419269;27;98670;-83
2022/01/07 19:15:20;;;;;;;16.77;7.80;;;-3.60;99.90;;;-6.25;77.94;100585.22;10416577;27;97252;-84
2022/01/07 19:20:24;;;;;;;29.17;12.27;;;-3.70;99.90;;;-6.26;78.46;100580.94;10440663;27;96889;-89
2022/01/07 19:25:26;;;;;;;57.60;24.50;;;-3.70;99.90;;;-6.25;79.23;100582.63;10421978;27;98491;-88
2022/01/07 19:30:29;;;;;;;61.17;24.77;;;-3.80;99.90;;;-6.28;79.27;100577.59;10433188;27;97786;-89
2022/01/07 19:35:32;;;;;;;49.90;21.40;;;-3.80;99.90;;;-6.35;79.39;100573.53;10442133;27;97740;-88
2022/01/07 19:40:36;;;;;;;45.47;18.60;;;-3.80;99.90;;;-6.43;79.43;100569.47;10436126;27;97371;-88
2022/01/07 19:45:43;;;;;;;30.87;11.63;;;-3.90;99.90;;;-6.52;79.65;100578.41;10426427;27;97079;-88
2022/01/07 19:50:46;;;;;;;23.80;9.27;;;-4.00;99.90;;;-6.58;79.78;100582.03;10410708;27;98919;-89
2022/01/07 19:55:49;;;;;;;30.77;11.80;;;-4.00;99.90;;;-6.61;80.16;100581.28;10423764;27;97372;-88
2022/01/07 20:00:52;;;;;;;32.13;13.57;;;-4.00;99.90;;;-6.66;80.52;100580.56;10404827;27;98466;-89
2022/01/07 20:05:55;;;;;;;22.77;10.17;;;-4.10;99.90;;;-6.73;80.56;100587.69;10398211;27;98419;-88
2022/01/07 20:10:58;;;;;;;25.33;10.17;;;-4.20;99.90;;;-6.79;80.92;100578.38;10402988;27;97041;-88
2022/01/07 20:16:02;;;;;;;29.53;11.10;;;-4.20;99.90;;;-6.84;81.10;100574.25;10399647;27;97525;-87
2022/01/07 20:21:05;;;;;;;25.40;9.83;;;-4.30;99.90;;;-6.87;81.25;100572.63;10396617;27;99003;-88
2022/01/07 20:26:08;;;;;;;37.93;13.30;;;-4.30;99.90;;;-6.87;81.30;100570.06;10416858;27;98001;-88
2022/01/07 20:31:11;;;;;;;31.87;12.33;;;-4.30;99.90;;;-6.90;81.46;100567.53;10398640;27;98694;-88
2022/01/07 20:36:15;;;;;;;29.23;12.63;;;-4.30;99.90;;;-6.93;81.53;100557.31;10397439;27;97004;-88
2022/01/07 20:41:18;;;;;;;31.87;12.83;;;-4.30;99.90;;;-6.97;81.64;100557.47;10410270;27;97361;-87
2022/01/07 20:46:20;;;;;;;25.70;11.40;;;-4.40;99.90;;;-7.01;81.84;100552.41;10401617;27;96790;-88
2022/01/07 20:51:23;;;;;;;38.80;15.10;;;-4.40;99.90;;;-7.03;81.41;100545.59;10407472;27;97238;-88
2022/01/07 20:56:27;;;;;;;37.33;13.43;;;-4.40;99.90;;;-7.04;81.53;100547.31;10393343;27;97096;-89
2022/01/07 21:01:31;;;;;;;32.73;11.87;;;-4.40;99.90;;;-7.04;81.77;100543.91;10383594;27;98870;-88
2022/01/07 21:06:34;;;;;;;24.97;11.03;;;-4.50;99.90;;;-7.07;81.94;100547.44;10391101;27;98056;-87
2022/01/07 21:11:37;;;;;;;31.67;11.03;;;-4.50;99.90;;;-7.11;82.12;100545.00;10396378;27;97186;-88